createdAt,value
2018-02-12T00:01:41.954Z,8.77
2018-02-12T00:04:10.369Z,7.80
2018-02-12T00:06:38.672Z,8.70
2018-02-12T00:09:06.968Z,8.00
2018-02-12T00:11:35.259Z,8.07
2018-02-12T00:14:03.552Z,7.73
2018-02-12T00:16:31.830Z,6.87
2018-02-12T00:19:00.114Z,7.83
2018-02-12T00:21:28.400Z,8.73
2018-02-12T00:23:56.701Z,7.10
2018-02-12T00:26:25.000Z,6.80
2018-02-12T00:28:53.294Z,7.60
2018-02-12T00:31:21.591Z,6.73
2018-02-12T00:33:49.881Z,6.97
2018-02-12T00:36:18.217Z,6.30
2018-02-12T00:38:46.525Z,7.63
2018-02-12T00:41:14.850Z,6.60
2018-02-12T00:43:43.133Z,6.70
2018-02-12T00:46:11.401Z,8.17
2018-02-12T00:48:39.709Z,6.43
2018-02-12T00:51:08.000Z,6.43
2018-02-12T00:53:36.296Z,8.73
2018-02-12T00:56:04.372Z,5.90
2018-02-12T00:58:32.667Z,5.90
2018-02-12T01:01:00.951Z,6.77
2018-02-12T01:03:29.253Z,5.77
2018-02-12T01:05:57.577Z,6.10
2018-02-12T01:08:25.870Z,5.23
2018-02-12T01:10:54.153Z,5.47
2018-02-12T01:13:22.458Z,5.10
2018-02-12T01:15:50.758Z,5.40
2018-02-12T01:18:19.084Z,5.17
2018-02-12T01:20:47.185Z,5.20
2018-02-12T01:23:15.473Z,5.50
2018-02-12T01:25:43.760Z,5.07
2018-02-12T01:28:12.048Z,5.87
2018-02-12T01:30:40.320Z,4.87
2018-02-12T01:33:08.606Z,5.97
2018-02-12T01:35:36.893Z,5.00
2018-02-12T01:38:05.176Z,4.70
2018-02-12T01:40:34.245Z,6.47
2018-02-12T01:43:02.530Z,5.43
2018-02-12T01:45:30.831Z,5.23
2018-02-12T01:47:59.154Z,5.60
2018-02-12T01:50:27.288Z,4.80
2018-02-12T01:52:55.567Z,5.00
2018-02-12T01:55:23.906Z,5.90
2018-02-12T01:57:52.190Z,5.30
2018-02-12T02:00:20.490Z,5.33
2018-02-12T02:02:48.783Z,4.43
2018-02-12T02:05:17.074Z,4.33
2018-02-12T02:07:45.357Z,5.50
2018-02-12T02:10:13.629Z,4.10
2018-02-12T02:12:41.952Z,4.50
2018-02-12T02:15:10.244Z,4.40
2018-02-12T02:17:38.540Z,4.57
2018-02-12T02:20:06.851Z,3.90
2018-02-12T02:22:35.126Z,4.30
2018-02-12T02:25:03.404Z,4.53
2018-02-12T02:27:31.752Z,4.20
2018-02-12T02:30:00.056Z,4.70
2018-02-12T02:32:28.365Z,4.73
2018-02-12T02:34:56.658Z,4.50
2018-02-12T02:37:24.975Z,4.30
2018-02-12T02:39:53.265Z,3.83
2018-02-12T02:42:21.569Z,4.57
2018-02-12T02:44:49.871Z,4.40
2018-02-12T02:47:18.171Z,4.83
2018-02-12T02:49:46.470Z,5.17
2018-02-12T02:52:14.775Z,6.00
2018-02-12T02:54:43.087Z,5.63
2018-02-12T02:57:11.378Z,5.17
2018-02-12T02:59:39.672Z,6.70
2018-02-12T03:02:07.976Z,5.50
2018-02-12T03:04:36.272Z,6.13
2018-02-12T03:07:04.581Z,5.97
2018-02-12T03:09:32.869Z,7.00
2018-02-12T03:12:01.149Z,7.40
2018-02-12T03:14:29.481Z,10.80
2018-02-12T03:16:57.788Z,9.20
2018-02-12T03:19:26.083Z,10.30
2018-02-12T03:21:54.385Z,10.50
2018-02-12T03:24:22.680Z,10.07
2018-02-12T03:26:50.979Z,9.17
2018-02-12T03:29:19.263Z,10.00
2018-02-12T03:31:47.574Z,8.30
2018-02-12T03:34:15.863Z,9.30
2018-02-12T03:36:44.144Z,8.63
2018-02-12T03:39:12.440Z,9.80
2018-02-12T03:41:40.746Z,11.77
2018-02-12T03:44:09.049Z,9.70
2018-02-12T03:46:37.157Z,8.87
2018-02-12T03:49:05.452Z,8.87
2018-02-12T03:51:33.749Z,8.53
2018-02-12T03:54:02.031Z,8.57
2018-02-12T03:56:30.347Z,8.27
2018-02-12T03:58:58.635Z,8.07
2018-02-12T04:01:26.938Z,8.17
2018-02-12T04:03:55.222Z,7.33
2018-02-12T04:06:23.552Z,8.10
2018-02-12T04:08:51.845Z,7.23
2018-02-12T04:11:20.153Z,8.17
2018-02-12T04:13:48.474Z,7.63
2018-02-12T04:16:16.800Z,7.43
2018-02-12T04:18:44.926Z,9.67
2018-02-12T04:21:13.220Z,14.03
2018-02-12T04:23:41.513Z,17.53
2018-02-12T04:26:09.805Z,12.97
2018-02-12T04:28:38.107Z,16.10
2018-02-12T04:31:06.423Z,16.53
2018-02-12T04:33:34.716Z,18.77
2018-02-12T04:36:03.027Z,15.03
2018-02-12T04:38:31.344Z,16.27
2018-02-12T04:40:59.639Z,15.37
2018-02-12T04:43:27.928Z,16.97
2018-02-12T04:45:56.244Z,11.53
2018-02-12T04:48:24.656Z,12.20
2018-02-12T04:50:52.960Z,10.87
2018-02-12T04:53:21.279Z,11.67
2018-02-12T04:55:49.579Z,11.90
2018-02-12T04:58:17.868Z,13.30
2018-02-12T05:00:46.199Z,15.70
2018-02-12T05:03:14.487Z,15.13
2018-02-12T05:05:42.787Z,11.53
2018-02-12T05:08:11.121Z,8.67
2018-02-12T05:10:39.412Z,9.90
2018-02-12T05:13:07.737Z,11.83
2018-02-12T05:15:36.039Z,8.87
2018-02-12T05:18:04.345Z,8.73
2018-02-12T05:20:32.721Z,8.90
2018-02-12T05:23:01.039Z,8.80
2018-02-12T05:25:29.375Z,6.87
2018-02-12T05:27:57.686Z,9.30
2018-02-12T05:30:25.970Z,6.27
2018-02-12T05:32:54.276Z,6.87
2018-02-12T05:35:22.567Z,7.90
2018-02-12T05:37:50.880Z,8.27
2018-02-12T05:40:19.171Z,9.53
2018-02-12T05:42:47.466Z,6.73
2018-02-12T05:45:15.795Z,10.27
2018-02-12T05:47:44.094Z,7.83
2018-02-12T05:50:12.388Z,6.90
2018-02-12T05:52:40.684Z,7.97
2018-02-12T05:55:08.999Z,7.50
2018-02-12T05:57:37.287Z,8.23
2018-02-12T06:00:05.601Z,9.10
2018-02-12T06:02:33.909Z,8.03
2018-02-12T06:05:02.201Z,8.87
2018-02-12T06:07:30.528Z,7.57
2018-02-12T06:09:58.845Z,7.50
2018-02-12T06:12:27.119Z,8.27
2018-02-12T06:14:55.445Z,7.27
2018-02-12T06:17:23.740Z,7.77
2018-02-12T06:19:52.055Z,7.67
2018-02-12T06:22:20.333Z,7.43
2018-02-12T06:24:48.634Z,7.23
2018-02-12T06:27:16.936Z,7.77
2018-02-12T06:29:45.236Z,6.77
2018-02-12T06:32:13.528Z,7.10
2018-02-12T06:34:41.838Z,7.20
2018-02-12T06:37:10.140Z,6.50
2018-02-12T06:39:38.418Z,6.87
2018-02-12T06:42:06.717Z,8.30
2018-02-12T06:44:35.019Z,7.70
2018-02-12T06:47:03.298Z,8.13
2018-02-12T06:49:31.602Z,9.40
2018-02-12T06:51:59.908Z,10.33
2018-02-12T06:54:28.210Z,11.00
2018-02-12T06:56:56.527Z,10.63
2018-02-12T06:59:24.820Z,11.10
2018-02-12T07:01:53.127Z,10.57
2018-02-12T07:04:21.440Z,11.13
2018-02-12T07:06:49.772Z,11.50
2018-02-12T07:09:18.074Z,11.10
2018-02-12T07:11:46.362Z,10.63
2018-02-12T07:14:14.679Z,11.10
2018-02-12T07:16:42.958Z,11.23
2018-02-12T07:19:11.301Z,11.67
2018-02-12T07:21:39.627Z,12.53
2018-02-12T07:24:07.922Z,11.10
2018-02-12T07:26:36.230Z,11.10
2018-02-12T07:29:04.524Z,10.60
2018-02-12T07:31:32.617Z,11.07
2018-02-12T07:34:00.903Z,11.43
2018-02-12T07:36:29.219Z,12.13
2018-02-12T07:38:57.514Z,13.10
2018-02-12T07:41:25.814Z,14.00
2018-02-12T07:43:54.126Z,12.60
2018-02-12T07:46:22.414Z,12.17
2018-02-12T07:48:50.702Z,14.00
2018-02-12T07:51:19.009Z,12.53
2018-02-12T07:53:47.464Z,13.37
2018-02-12T07:56:15.784Z,13.50
2018-02-12T07:58:44.089Z,13.10
2018-02-12T08:01:12.410Z,13.23
2018-02-12T08:03:40.698Z,12.40
2018-02-12T08:06:09.021Z,13.37
2018-02-12T08:08:37.495Z,12.37
2018-02-12T08:11:05.782Z,12.50
2018-02-12T08:13:34.088Z,11.53
2018-02-12T08:16:02.389Z,11.57
2018-02-12T08:18:30.693Z,10.53
2018-02-12T08:20:59.009Z,11.47
2018-02-12T08:23:27.312Z,10.87
2018-02-12T08:25:55.654Z,11.87
2018-02-12T08:28:23.954Z,10.10
2018-02-12T08:30:52.242Z,9.57
2018-02-12T08:33:20.535Z,10.00
2018-02-12T08:35:48.838Z,10.37
2018-02-12T08:38:17.114Z,9.03
2018-02-12T08:40:45.425Z,9.40
2018-02-12T08:43:13.728Z,9.50
2018-02-12T08:45:42.050Z,9.17
2018-02-12T08:48:10.343Z,9.60
2018-02-12T08:50:38.670Z,8.60
2018-02-12T08:53:06.946Z,8.50
2018-02-12T08:55:35.227Z,9.07
2018-02-12T08:58:03.528Z,8.90
2018-02-12T09:00:31.832Z,8.30
2018-02-12T09:03:00.146Z,8.53
2018-02-12T09:05:28.443Z,9.07
2018-02-12T09:07:56.751Z,8.03
2018-02-12T09:10:25.046Z,8.40
2018-02-12T09:12:53.344Z,8.33
2018-02-12T09:15:21.638Z,8.23
2018-02-12T09:17:49.921Z,8.40
2018-02-12T09:20:18.072Z,8.10
2018-02-12T09:22:46.381Z,7.83
2018-02-12T09:25:14.661Z,8.60
2018-02-12T09:27:42.984Z,8.70
2018-02-12T09:30:11.472Z,7.93
2018-02-12T09:32:39.752Z,8.47
2018-02-12T09:35:08.111Z,8.23
2018-02-12T09:37:36.456Z,8.67
2018-02-12T09:40:04.584Z,7.30
2018-02-12T09:42:32.888Z,7.50
2018-02-12T09:45:01.197Z,7.67
2018-02-12T09:47:29.504Z,7.20
2018-02-12T09:49:58.023Z,7.70
2018-02-12T09:52:26.327Z,7.27
2018-02-12T09:54:54.650Z,7.77
2018-02-12T09:57:22.935Z,8.53
2018-02-12T09:59:51.218Z,9.13
2018-02-12T10:02:19.522Z,8.87
2018-02-12T10:04:47.825Z,9.10
2018-02-12T10:07:16.116Z,9.27
2018-02-12T10:09:44.432Z,8.67
2018-02-12T10:12:12.808Z,10.07
2018-02-12T10:14:41.116Z,18.97
2018-02-12T10:17:09.404Z,19.23
2018-02-12T10:19:37.717Z,15.27
2018-02-12T10:22:06.021Z,12.10
2018-02-12T10:24:34.328Z,13.03
2018-02-12T10:27:02.634Z,12.47
2018-02-12T10:29:30.933Z,13.30
2018-02-12T10:31:59.265Z,12.90
2018-02-12T10:34:27.569Z,13.27
2018-02-12T10:36:55.881Z,14.10
2018-02-12T10:39:24.185Z,14.33
2018-02-12T10:41:52.502Z,13.57
2018-02-12T10:44:20.808Z,14.67
2018-02-12T10:46:49.199Z,14.30
2018-02-12T10:49:17.497Z,15.40
2018-02-12T10:51:45.794Z,14.47
2018-02-12T10:54:14.119Z,14.60
2018-02-12T10:56:42.483Z,14.17
2018-02-12T10:59:10.990Z,13.30
2018-02-12T11:01:39.461Z,12.93
2018-02-12T11:04:07.825Z,13.00
2018-02-12T11:06:36.272Z,13.03
2018-02-12T11:09:04.143Z,13.03
2018-02-12T11:11:32.453Z,13.37
2018-02-12T11:14:00.774Z,13.13
2018-02-12T11:16:29.108Z,13.67
2018-02-12T11:18:57.399Z,12.50
2018-02-12T11:21:25.699Z,12.73
2018-02-12T11:23:54.003Z,12.70
2018-02-12T11:26:22.298Z,12.90
2018-02-12T11:28:50.596Z,12.47
2018-02-12T11:31:18.902Z,12.57
2018-02-12T11:33:47.190Z,12.60
2018-02-12T11:36:15.486Z,13.27
2018-02-12T11:38:43.853Z,13.27
2018-02-12T11:41:12.162Z,13.27
2018-02-12T11:43:40.459Z,15.17
2018-02-12T11:46:08.772Z,18.33
2018-02-12T11:48:37.074Z,22.03
2018-02-12T11:51:05.373Z,23.27
2018-02-12T11:53:33.693Z,27.73
2018-02-12T11:56:02.004Z,30.83
2018-02-12T11:58:30.126Z,28.10
2018-02-12T12:00:58.420Z,29.43
2018-02-12T12:03:26.717Z,29.23
2018-02-12T12:05:55.177Z,25.77
2018-02-12T12:08:23.522Z,27.97
2018-02-12T12:10:51.844Z,23.17
2018-02-12T12:13:20.145Z,25.60
2018-02-12T12:15:48.464Z,25.17
2018-02-12T12:18:16.867Z,22.87
2018-02-12T12:20:45.204Z,21.63
2018-02-12T12:23:13.550Z,22.50
2018-02-12T12:25:41.664Z,21.30
2018-02-12T12:28:09.970Z,20.83
2018-02-12T12:30:38.270Z,19.97
2018-02-12T12:33:06.585Z,21.10
2018-02-12T12:35:34.892Z,21.17
2018-02-12T12:38:03.287Z,21.00
2018-02-12T12:40:31.596Z,19.73
2018-02-12T12:43:00.517Z,20.53
2018-02-12T12:45:28.823Z,18.27
2018-02-12T12:47:57.115Z,19.33
2018-02-12T12:50:25.456Z,18.33
2018-02-12T12:52:53.765Z,19.07
2018-02-12T12:55:22.070Z,20.47
2018-02-12T12:57:50.377Z,18.33
2018-02-12T13:00:18.717Z,19.83
2018-02-12T13:02:47.031Z,18.90
2018-02-12T13:05:15.362Z,23.73
2018-02-12T13:07:43.672Z,19.37
2018-02-12T13:10:11.979Z,18.13
2018-02-12T13:12:40.289Z,21.83
2018-02-12T13:15:08.586Z,19.63
2018-02-12T13:17:36.880Z,21.07
2018-02-12T13:20:05.208Z,17.50
2018-02-12T13:22:33.519Z,20.33
2018-02-12T13:25:01.876Z,18.83
2018-02-12T13:27:30.191Z,19.87
2018-02-12T13:29:58.498Z,20.37
2018-02-12T13:32:26.809Z,18.77
2018-02-12T13:34:55.102Z,18.67
2018-02-12T13:37:23.438Z,19.93
2018-02-12T13:39:51.947Z,20.53
2018-02-12T13:42:20.956Z,27.67
2018-02-12T13:44:49.293Z,22.30
2018-02-12T13:47:17.610Z,23.13
2018-02-12T13:49:46.084Z,22.40
2018-02-12T13:52:14.375Z,23.30
2018-02-12T13:54:42.720Z,22.47
2018-02-12T13:57:11.028Z,21.33
2018-02-12T13:59:39.313Z,20.17
2018-02-12T14:02:07.618Z,21.17
2018-02-12T14:04:35.942Z,20.57
2018-02-12T14:07:04.254Z,19.93
2018-02-12T14:09:32.557Z,21.63
2018-02-12T14:12:02.627Z,19.57
2018-02-12T14:14:30.990Z,20.17
2018-02-12T14:16:59.300Z,21.40
2018-02-12T14:19:27.653Z,19.83
2018-02-12T14:21:55.986Z,19.27
2018-02-12T14:24:24.512Z,19.03
2018-02-12T14:26:52.914Z,18.97
2018-02-12T14:29:21.213Z,18.67
2018-02-12T14:31:49.517Z,17.37
2018-02-12T14:34:17.846Z,18.67
2018-02-12T14:36:46.190Z,18.20
2018-02-12T14:39:14.482Z,17.27
2018-02-12T14:41:42.774Z,18.10
2018-02-12T14:44:11.106Z,17.83
2018-02-12T14:46:39.480Z,17.83
2018-02-12T14:49:07.799Z,17.70
2018-02-12T14:51:36.089Z,17.00
2018-02-12T14:54:04.397Z,18.93
2018-02-12T14:56:32.737Z,18.27
2018-02-12T14:59:01.034Z,17.03
2018-02-12T15:01:29.332Z,16.97
2018-02-12T15:03:57.635Z,17.37
2018-02-12T15:06:25.951Z,16.10
2018-02-12T15:08:54.256Z,16.13
2018-02-12T15:11:22.782Z,16.37
2018-02-12T15:13:51.177Z,16.70
2018-02-12T15:16:19.478Z,16.70
2018-02-12T15:18:47.780Z,19.07
2018-02-12T15:21:16.089Z,20.37
2018-02-12T15:23:44.374Z,25.40
2018-02-12T15:26:12.680Z,32.23
2018-02-12T15:28:40.982Z,31.53
2018-02-12T15:31:09.275Z,35.20
2018-02-12T15:33:37.581Z,33.57
2018-02-12T15:36:05.901Z,31.23
2018-02-12T15:38:34.212Z,32.33
2018-02-12T15:41:02.498Z,30.03
2018-02-12T15:43:30.813Z,31.67
2018-02-12T15:45:59.111Z,30.20
2018-02-12T15:48:27.432Z,28.73
2018-02-12T15:50:55.728Z,28.47
2018-02-12T15:53:24.037Z,28.07
2018-02-12T15:55:52.357Z,27.83
2018-02-12T15:58:20.681Z,26.90
2018-02-12T16:00:48.969Z,27.50
2018-02-12T16:03:17.254Z,28.23
2018-02-12T16:05:45.556Z,28.30
2018-02-12T16:08:13.864Z,27.43
2018-02-12T16:10:42.171Z,27.30
2018-02-12T16:13:10.679Z,26.90
2018-02-12T16:15:38.983Z,26.50
2018-02-12T16:18:07.283Z,25.53
2018-02-12T16:20:35.607Z,27.80
2018-02-12T16:23:03.912Z,26.23
2018-02-12T16:25:32.253Z,25.10
2018-02-12T16:28:00.562Z,26.17
2018-02-12T16:30:28.882Z,24.80
2018-02-12T16:32:57.205Z,24.73
2018-02-12T16:35:25.503Z,24.40
2018-02-12T16:37:53.845Z,22.50
2018-02-12T16:40:22.140Z,24.03
2018-02-12T16:42:50.252Z,24.43
2018-02-12T16:45:18.557Z,22.77
2018-02-12T16:47:46.865Z,22.53
2018-02-12T16:50:15.235Z,23.83
2018-02-12T16:52:43.671Z,24.93
2018-02-12T16:55:11.958Z,25.10
2018-02-12T16:57:40.276Z,23.97
2018-02-12T17:00:08.569Z,24.60
2018-02-12T17:02:36.879Z,24.20
2018-02-12T17:05:04.978Z,24.23
2018-02-12T17:07:33.295Z,22.73
2018-02-12T17:10:01.597Z,23.90
2018-02-12T17:12:29.997Z,22.77
2018-02-12T17:14:58.315Z,22.30
2018-02-12T17:17:26.628Z,21.10
2018-02-12T17:19:54.930Z,22.40
2018-02-12T17:22:23.308Z,22.07
2018-02-12T17:24:51.743Z,21.87
2018-02-12T17:27:20.916Z,21.40
2018-02-12T17:29:49.288Z,21.57
2018-02-12T17:32:17.589Z,21.03
2018-02-12T17:34:45.938Z,20.93
2018-02-12T17:37:14.263Z,19.67
2018-02-12T17:39:42.593Z,20.40
2018-02-12T17:42:10.902Z,19.87
2018-02-12T17:44:39.223Z,20.47
2018-02-12T17:47:07.530Z,20.53
2018-02-12T17:49:35.860Z,19.47
2018-02-12T17:52:04.154Z,20.30
2018-02-12T17:54:32.262Z,19.53
2018-02-12T17:57:02.279Z,18.87
2018-02-12T17:59:30.574Z,19.70
2018-02-12T18:01:58.896Z,19.13
2018-02-12T18:04:27.206Z,19.97
2018-02-12T18:06:55.636Z,18.60
2018-02-12T18:09:23.978Z,18.43
2018-02-12T18:11:52.297Z,17.80
2018-02-12T18:14:20.595Z,18.73
2018-02-12T18:16:48.913Z,18.80
2018-02-12T18:19:17.239Z,17.87
2018-02-12T18:21:45.634Z,19.47
2018-02-12T18:24:13.961Z,19.23
2018-02-12T18:26:42.268Z,22.03
2018-02-12T18:29:10.555Z,20.90
2018-02-12T18:31:38.860Z,20.30
2018-02-12T18:34:07.211Z,20.00
2018-02-12T18:36:35.735Z,19.17
2018-02-12T18:39:04.053Z,18.63
2018-02-12T18:41:32.357Z,19.67
2018-02-12T18:44:00.678Z,18.10
2018-02-12T18:46:28.991Z,19.73
2018-02-12T18:48:57.340Z,18.43
2018-02-12T18:51:25.662Z,17.90
2018-02-12T18:53:53.953Z,18.73
2018-02-12T18:56:22.358Z,17.70
2018-02-12T18:58:50.562Z,17.73
2018-02-12T19:01:18.854Z,18.50
2018-02-12T19:03:47.165Z,16.90
2018-02-12T19:06:15.514Z,18.47
2018-02-12T19:08:43.876Z,19.30
2018-02-12T19:11:12.188Z,19.87
2018-02-12T19:13:41.468Z,19.70
2018-02-12T19:16:09.934Z,19.77
2018-02-12T19:18:38.358Z,20.00
2018-02-12T19:21:06.866Z,20.40
2018-02-12T19:23:35.247Z,20.83
2018-02-12T19:26:03.711Z,20.43
2018-02-12T19:28:32.016Z,21.57
2018-02-12T19:31:00.335Z,20.43
2018-02-12T19:33:28.660Z,21.33
2018-02-12T19:35:56.997Z,20.83
2018-02-12T19:38:25.423Z,20.83
2018-02-12T19:40:53.815Z,20.60
2018-02-12T19:43:22.603Z,21.40
2018-02-12T19:45:50.953Z,20.17
2018-02-12T19:48:19.347Z,21.43
2018-02-12T19:50:47.653Z,21.23
2018-02-12T19:53:15.989Z,21.60
2018-02-12T19:55:44.300Z,21.90
2018-02-12T19:58:13.155Z,22.00
2018-02-12T20:00:41.539Z,21.57
2018-02-12T20:03:09.847Z,21.53
2018-02-12T20:05:39.148Z,20.33
2018-02-12T20:08:08.339Z,22.03
2018-02-12T20:10:37.491Z,20.60
2018-02-12T20:13:10.595Z,20.37
2018-02-12T20:15:46.179Z,20.77
2018-02-12T20:18:14.538Z,20.10
2018-02-12T20:20:42.846Z,19.60
2018-02-12T20:23:11.773Z,19.33
2018-02-12T20:25:40.426Z,18.60
2018-02-12T20:28:08.735Z,18.33
2018-02-12T20:30:37.063Z,19.73
2018-02-12T20:33:05.427Z,19.53
2018-02-12T20:35:33.743Z,17.90
2018-02-12T20:38:02.222Z,18.23
2018-02-12T20:40:30.514Z,18.00
2018-02-12T20:42:59.116Z,18.57
2018-02-12T20:45:27.755Z,18.57
2018-02-12T20:47:56.235Z,17.60
2018-02-12T20:50:24.648Z,17.67
2018-02-12T20:52:52.990Z,17.37
2018-02-12T20:55:21.331Z,17.80
2018-02-12T20:57:49.646Z,17.37
2018-02-12T21:00:18.022Z,16.70
2018-02-12T21:02:46.482Z,16.80
2018-02-12T21:05:14.818Z,17.97
2018-02-12T21:07:42.974Z,18.50
2018-02-12T21:10:11.308Z,17.53
2018-02-12T21:12:39.631Z,18.57
2018-02-12T21:15:08.358Z,16.90
2018-02-12T21:17:36.654Z,16.43
2018-02-12T21:20:04.735Z,17.23
2018-02-12T21:22:33.052Z,16.57
2018-02-12T21:25:01.804Z,17.73
2018-02-12T21:27:30.135Z,17.40
2018-02-12T21:29:58.548Z,16.30
2018-02-12T21:32:26.861Z,17.17
2018-02-12T21:34:55.208Z,17.33
2018-02-12T21:37:23.547Z,16.70
2018-02-12T21:39:51.886Z,17.07
2018-02-12T21:42:20.213Z,16.13
2018-02-12T21:44:48.525Z,16.97
2018-02-12T21:47:16.813Z,16.60
2018-02-12T21:49:45.172Z,16.50
2018-02-12T21:52:13.474Z,16.60
2018-02-12T21:54:41.786Z,16.43
2018-02-12T21:57:10.108Z,16.70
2018-02-12T21:59:38.420Z,16.73
2018-02-12T22:02:06.755Z,16.93
2018-02-12T22:04:35.096Z,17.30
2018-02-12T22:07:03.401Z,16.73
2018-02-12T22:09:31.691Z,16.80
2018-02-12T22:11:59.995Z,18.40
2018-02-12T22:14:28.298Z,17.97
2018-02-12T22:16:56.591Z,17.67
2018-02-12T22:19:24.905Z,19.37
2018-02-12T22:21:53.200Z,17.63
2018-02-12T22:24:21.501Z,18.40
2018-02-12T22:26:49.811Z,17.13
2018-02-12T22:29:18.120Z,19.27
2018-02-12T22:31:46.443Z,18.50
2018-02-12T22:34:14.726Z,17.17
2018-02-12T22:36:43.050Z,18.20
2018-02-12T22:39:11.334Z,18.93
2018-02-12T22:41:39.641Z,18.73
2018-02-12T22:44:07.960Z,17.90
2018-02-12T22:46:36.262Z,17.93
2018-02-12T22:49:04.577Z,18.63
2018-02-12T22:51:32.869Z,18.03
2018-02-12T22:54:01.163Z,18.63
2018-02-12T22:56:29.477Z,18.30
2018-02-12T22:58:57.774Z,19.27
2018-02-12T23:01:26.077Z,18.90
2018-02-12T23:03:54.463Z,18.67
2018-02-12T23:06:22.776Z,17.50
2018-02-12T23:08:51.078Z,20.50
2018-02-12T23:11:19.377Z,18.23
2018-02-12T23:13:47.684Z,19.03
2018-02-12T23:16:15.969Z,18.43
2018-02-12T23:18:44.279Z,19.20
2018-02-12T23:21:12.590Z,18.90
2018-02-12T23:23:40.899Z,19.77
2018-02-12T23:26:09.190Z,20.57
2018-02-12T23:28:37.486Z,19.63
2018-02-12T23:31:05.805Z,19.13
2018-02-12T23:33:34.109Z,18.27
2018-02-12T23:36:02.416Z,20.67
2018-02-12T23:38:30.736Z,18.30
2018-02-12T23:40:59.043Z,20.40
2018-02-12T23:43:27.334Z,18.60
2018-02-12T23:45:55.735Z,18.70
2018-02-12T23:48:24.208Z,20.47
2018-02-12T23:50:52.506Z,19.67
2018-02-12T23:53:20.799Z,20.57
2018-02-12T23:55:49.140Z,18.40
2018-02-12T23:58:17.442Z,19.20
